Time,TemperatureF,DewpointF,PressureIn,WindDirection,WindDirectionDegrees,WindSpeedMPH,WindSpeedGustMPH,Humidity,HourlyPrecipIn,Conditions,Clouds,dailyrainin,SoftwareType,DateUTC
2013-01-29 08:25:00,33.8,21.0,30.31,West,273,11.0,21.0,60,0.00,,,0.00,weatherlink.com 1.10,2013-01-29 16:25:00,
2013-01-29 08:33:00,34.4,20.0,30.31,WNW,286,8.0,21.0,57,0.00,,,0.00,weatherlink.com 1.10,2013-01-29 16:33:00,
2013-01-29 08:48:00,35.4,21.0,30.31,West,280,15.0,18.0,57,0.00,,,0.00,weatherlink.com 1.10,2013-01-29 16:48:00,
2013-01-29 09:03:00,35.7,21.0,30.32,West,273,7.0,20.0,56,0.00,,,0.00,weatherlink.com 1.10,2013-01-29 17:03:00,
2013-01-29 09:18:00,36.0,21.0,30.32,West,264,10.0,19.0,55,0.00,,,0.00,weatherlink.com 1.10,2013-01-29 17:18:00,
2013-01-29 09:33:00,36.4,23.0,30.32,WNW,294,10.0,20.0,58,0.00,,,0.00,weatherlink.com 1.10,2013-01-29 17:33:00,
2013-01-29 09:48:00,37.6,24.0,30.32,NW,319,19.0,20.0,59,0.00,,,0.00,weatherlink.com 1.10,2013-01-29 17:48:00,
2013-01-29 10:03:00,39.2,25.0,30.33,NNW,348,10.0,22.0,58,0.00,,,0.00,weatherlink.com 1.10,2013-01-29 18:03:00,
2013-01-29 10:19:00,39.9,26.0,30.32,NW,306,11.0,18.0,57,0.00,,,0.00,weatherlink.com 1.10,2013-01-29 18:19:00,
2013-01-29 10:34:00,42.5,26.0,30.32,NNW,336,8.0,22.0,52,0.01,,,0.01,weatherlink.com 1.10,2013-01-29 18:34:00,
2013-01-29 10:49:00,46.2,26.0,30.32,NW,318,8.0,21.0,45,0.01,,,0.01,weatherlink.com 1.10,2013-01-29 18:49:00,
2013-01-29 11:04:00,46.7,28.0,30.32,NW,320,9.0,19.0,48,0.01,,,0.01,weatherlink.com 1.10,2013-01-29 19:04:00,
2013-01-29 11:19:00,46.8,27.0,30.32,NW,309,11.0,20.0,46,0.02,,,0.02,weatherlink.com 1.10,2013-01-29 19:19:00,
2013-01-29 11:34:00,47.1,29.0,30.32,WNW,296,8.0,21.0,50,0.01,,,0.02,weatherlink.com 1.10,2013-01-29 19:34:00,
2013-01-29 11:49:00,47.5,28.0,30.31,West,274,10.0,19.0,47,0.02,,,0.03,weatherlink.com 1.10,2013-01-29 19:49:00,
2013-01-29 12:04:00,48.0,29.0,30.31,NW,325,13.0,19.0,49,0.02,,,0.03,weatherlink.com 1.10,2013-01-29 20:04:00,
2013-01-29 12:19:00,49.2,30.0,30.30,NNW,338,7.0,19.0,48,0.01,,,0.03,weatherlink.com 1.10,2013-01-29 20:19:00,
2013-01-29 12:34:00,49.9,31.0,30.29,WNW,296,11.0,16.0,49,0.01,,,0.03,weatherlink.com 1.10,2013-01-29 20:34:00,
2013-01-29 12:49:00,50.8,32.0,30.28,NNW,334,8.0,16.0,49,0.00,,,0.03,weatherlink.com 1.10,2013-01-29 20:49:00,
2013-01-29 13:04:00,52.7,31.0,30.27,NNW,329,8.0,20.0,43,0.00,,,0.03,weatherlink.com 1.10,2013-01-29 21:04:00,
2013-01-29 13:19:00,53.7,31.0,30.27,NNW,335,8.0,17.0,43,0.00,,,0.03,weatherlink.com 1.10,2013-01-29 21:19:00,
2013-01-29 13:34:00,53.7,31.0,30.26,NNW,338,4.0,19.0,43,0.00,,,0.03,weatherlink.com 1.10,2013-01-29 21:34:00,
2013-01-29 13:49:00,53.6,31.0,30.26,WNW,283,16.0,21.0,42,0.00,,,0.03,weatherlink.com 1.10,2013-01-29 21:49:00,
2013-01-29 14:04:00,54.2,32.0,30.26,NW,325,7.0,21.0,43,0.00,,,0.03,weatherlink.com 1.10,2013-01-29 22:04:00,
2013-01-29 14:19:00,53.4,31.0,30.26,NW,318,11.0,18.0,43,0.00,,,0.03,weatherlink.com 1.10,2013-01-29 22:19:00,
2013-01-29 14:34:00,52.9,31.0,30.26,NNW,340,11.0,14.0,44,0.00,,,0.03,weatherlink.com 1.10,2013-01-29 22:34:00,
2013-01-29 14:49:00,53.0,31.0,30.25,WNW,288,9.0,15.0,44,0.00,,,0.03,weatherlink.com 1.10,2013-01-29 22:49:00,
2013-01-29 15:04:00,53.0,31.0,30.25,NW,313,8.0,19.0,44,0.00,,,0.03,weatherlink.com 1.10,2013-01-29 23:04:00,
2013-01-29 15:19:00,54.0,32.0,30.25,NW,314,10.0,16.0,44,0.00,,,0.03,weatherlink.com 1.10,2013-01-29 23:19:00,
2013-01-29 15:34:00,53.3,32.0,30.24,NW,309,6.0,14.0,45,0.00,,,0.03,weatherlink.com 1.10,2013-01-29 23:34:00,
2013-01-29 15:49:00,52.7,31.0,30.24,NW,317,6.0,15.0,44,0.00,,,0.03,weatherlink.com 1.10,2013-01-29 23:49:00,
2013-01-29 16:04:00,51.4,32.0,30.24,NNW,344,6.0,14.0,48,0.00,,,0.03,weatherlink.com 1.10,2013-01-30 00:04:00,
2013-01-29 16:19:00,51.1,32.0,30.24,NNE,16,5.0,12.0,48,0.00,,,0.03,weatherlink.com 1.10,2013-01-30 00:19:00,
2013-01-29 16:34:00,49.4,32.0,30.24,NE,36,6.0,11.0,51,0.00,,,0.03,weatherlink.com 1.10,2013-01-30 00:34:00,
2013-01-29 16:49:00,45.2,32.0,30.25,NNE,12,8.0,12.0,60,0.00,,,0.03,weatherlink.com 1.10,2013-01-30 00:49:00,
2013-01-29 17:04:00,41.8,32.0,30.25,NNE,16,7.0,8.0,67,0.00,,,0.03,weatherlink.com 1.10,2013-01-30 01:04:00,
2013-01-29 17:19:00,41.1,30.0,30.25,NE,51,1.0,5.0,66,0.00,,,0.03,weatherlink.com 1.10,2013-01-30 01:19:00,
2013-01-29 17:34:00,41.2,31.0,30.26,NNE,12,2.0,7.0,66,0.00,,,0.03,weatherlink.com 1.10,2013-01-30 01:34:00,
2013-01-29 17:49:00,40.2,29.0,30.26,NE,49,3.0,6.0,64,0.00,,,0.03,weatherlink.com 1.10,2013-01-30 01:49:00,
2013-01-29 18:04:00,42.6,27.0,30.26,NE,43,0.0,5.0,54,0.00,,,0.03,weatherlink.com 1.10,2013-01-30 02:04:00,
2013-01-29 18:19:00,44.3,27.0,30.26,NNE,17,3.0,8.0,51,0.00,,,0.03,weatherlink.com 1.10,2013-01-30 02:19:00,
2013-01-29 18:34:00,44.4,27.0,30.27,NNE,24,2.0,8.0,51,0.00,,,0.03,weatherlink.com 1.10,2013-01-30 02:34:00,
2013-01-29 18:49:00,43.7,27.0,30.27,NNW,346,3.0,8.0,52,0.00,,,0.03,weatherlink.com 1.10,2013-01-30 02:49:00,
2013-01-29 19:04:00,43.5,27.0,30.28,NW,325,3.0,7.0,53,0.00,,,0.03,weatherlink.com 1.10,2013-01-30 03:04:00,
2013-01-29 19:19:00,42.9,27.0,30.28,NNW,332,3.0,7.0,54,0.00,,,0.03,weatherlink.com 1.10,2013-01-30 03:19:00,
2013-01-29 19:34:00,42.4,28.0,30.29,NNW,338,2.0,7.0,56,0.00,,,0.03,weatherlink.com 1.10,2013-01-30 03:34:00,
2013-01-29 19:49:00,41.8,28.0,30.29,North,5,2.0,4.0,58,0.00,,,0.03,weatherlink.com 1.10,2013-01-30 03:49:00,
2013-01-29 20:04:00,41.3,28.0,30.29,NW,322,5.0,7.0,60,0.00,,,0.03,weatherlink.com 1.10,2013-01-30 04:04:00,
2013-01-29 20:19:00,40.4,28.0,30.29,NNE,24,3.0,6.0,62,0.00,,,0.03,weatherlink.com 1.10,2013-01-30 04:19:00,
2013-01-29 20:34:00,40.4,29.0,30.29,NNE,17,5.0,8.0,63,0.00,,,0.03,weatherlink.com 1.10,2013-01-30 04:34:00,
2013-01-29 20:49:00,38.1,28.0,30.29,NNE,19,2.0,6.0,67,0.00,,,0.03,weatherlink.com 1.10,2013-01-30 04:49:00,
2013-01-29 21:04:00,37.2,28.0,30.29,North,11,5.0,6.0,70,0.00,,,0.03,weatherlink.com 1.10,2013-01-30 05:04:00,
2013-01-29 21:19:00,38.7,28.0,30.29,NNE,13,3.0,8.0,66,0.00,,,0.03,weatherlink.com 1.10,2013-01-30 05:19:00,
2013-01-29 21:34:00,39.1,28.0,30.29,NNE,25,3.0,6.0,64,0.00,,,0.03,weatherlink.com 1.10,2013-01-30 05:34:00,
2013-01-29 21:49:00,39.7,28.0,30.29,NNE,17,4.0,14.0,64,0.00,,,0.03,weatherlink.com 1.10,2013-01-30 05:49:00,
2013-01-29 22:04:00,41.9,29.0,30.29,NNE,21,3.0,11.0,60,0.00,,,0.03,weatherlink.com 1.10,2013-01-30 06:04:00,
2013-01-29 22:19:00,41.6,28.0,30.30,NNE,20,3.0,10.0,60,0.00,,,0.03,weatherlink.com 1.10,2013-01-30 06:19:00,
2013-01-29 22:34:00,40.9,29.0,30.30,North,5,6.0,10.0,62,0.00,,,0.03,weatherlink.com 1.10,2013-01-30 06:34:00,
2013-01-29 22:49:00,41.0,29.0,30.30,North,5,6.0,17.0,62,0.00,,,0.03,weatherlink.com 1.10,2013-01-30 06:49:00,
2013-01-29 23:05:00,41.8,28.0,30.29,NE,36,16.0,26.0,58,0.00,,,0.03,weatherlink.com 1.10,2013-01-30 07:05:00,
2013-01-29 23:19:00,41.6,28.0,30.30,North,360,21.0,29.0,58,0.00,,,0.03,weatherlink.com 1.10,2013-01-30 07:19:00,
2013-01-29 23:34:00,41.6,28.0,30.29,NNE,29,13.0,25.0,58,0.00,,,0.03,weatherlink.com 1.10,2013-01-30 07:34:00,
2013-01-29 23:49:00,41.2,28.0,30.29,North,5,16.0,30.0,59,0.00,,,0.03,weatherlink.com 1.10,2013-01-30 07:49:00,